Woodbury, CT (06798)

6:52 PM EST on December 10, 2016 (GMT -0500)
Woodbury, CT | | Change Station

Elev 437 ft 41.55 °N, 73.22 °W | Updated 4 seconds ago

Clear
Clear
23.2 °F
Feels Like 23 °F
N
0.0
Wind Variable Wind from North
Gusts 0.0 mph

Today
High -- | Low -- °F
--% Chance of Precip.
Yesterday
High -- | Low -- °F
Precip. -- in
Pressure 30.36 in
Visibility 10.0 miles
Clouds Scattered Clouds 3600 ft
Windchill 23 °F
Dew Point 9 °F
Humidity 53%
Rainfall 0.00 in
Snow Depth Not available.
7:08 AM 4:22 PM
Waxing Gibbous, 87% visible
METAR KOXC 102250Z 00000KT 10SM SCT036 M03/M12 A3036
Pressure 30.36 in
Visibility 10.0 miles
Clouds Scattered Clouds 3600 ft
Windchill 23 °F
Dew Point 9 °F
Humidity 53%
Rainfall 0.00 in
Snow Depth Not available.
7:08 AM 4:22 PM
Waxing Gibbous, 87% visible
METAR KOXC 102250Z 00000KT 10SM SCT036 M03/M12 A3036

10-Day Weather Forecast

Almanac

Astronomy

Dec. 10, 2016 Rise Set
Actual Time
Civil Twilight
Nautical Twilight
Astronomical Twilight
Moon
Length of Visible Light
Length of Day
Tomorrow will be .
, % of the Moon is Illuminated

Today's Extremes

State Highs State Lows

Community

WunderPhotos

Upload Photos

1,956,677 photos uploaded!

WunderBlog® & News

Nearby

Air Quality

  Air Quality AQ Index Pollutant
Not available.

Snow Depth

Station Depth Elevation

Earthquake Activity

City Distance Mag. Time & Date
Minimum magnitude displayed is 2.5.

Coastal Water Temperatures

Place Temperature

Stations

Nearby Weather Stations

Station Location Temp. Windchill Dew Point Humidity Wind Precip. Elev Updated Type
                   

Watches & Warnings

There are currently no watches in effect.